Latest Weather Observations for Scone Airport

IDN60801

Issued at 6:35 pm EDT Thursday 23 October 2014 (issued every 30 minutes, with the page automatically refreshed every 10 minutes)

About weather observations | Map of weather stations | Latest weather observations for NSW | Other Formats
Station Details ID: 061363 Name: SCONE AIRPORT AWS Lat: -32.03 Lon: 150.83 Height: 221.4 m
Data from the previous 72 hours. | See also: Recent months at Scone Airport
Date/Time
EDT
Temp
°C
App
Temp
°C
Dew
Point
Rel
Hum
%
Delta-T
°C
Wind Press
QNH
hPa
Press
MSL
hPa
Rain
since 9 am
mm
Dir
 
Spd
km/h
Gust
km/h
Spd
kts
Gust
kts
23/06:30pm 24.8 17.4 8.3 35 8.9 SE 37 48 20 26 1016.1 1015.7 0.0
23/06:00pm 26.3 20.9 7.8 31 10.0 SE 26 37 14 20 1015.6 1015.2 0.0
23/05:30pm 30.0 26.7 2.3 17 13.9 WSW 9 20 5 11 1014.8 1014.3 0.0
23/05:00pm 30.8 26.7 6.0 21 13.3 W 17 22 9 12 1014.5 1014.0 0.0
23/04:30pm 30.9 26.6 5.3 20 13.6 WSW 17 22 9 12 1014.5 1014.0 0.0
23/04:00pm 32.7 29.9 5.3 18 14.7 SW 9 15 5 8 1014.5 1014.0 0.0
23/03:30pm 32.2 28.0 5.7 19 14.3 SSE 17 26 9 14 1014.5 1014.0 0.0
23/03:00pm 32.7 29.3 6.1 19 14.4 S 13 22 7 12 1014.7 1014.2 0.0
23/02:30pm 32.0 28.8 7.0 21 13.7 S 13 20 7 11 1015.4 1015.0 0.0
23/02:00pm 32.4 29.5 8.0 22 13.6 WSW 13 22 7 12 1016.0 1015.6 0.0
23/01:30pm 32.0 28.2 7.6 22 13.5 WSW 17 24 9 13 1016.7 1016.2 0.0
23/01:00pm 31.0 26.8 7.5 23 12.9 WSW 19 26 10 14 1017.0 1016.5 0.0
23/12:30pm 32.0 27.8 8.3 23 13.3 W 20 33 11 18 1017.4 1016.9 0.0
23/12:00pm 31.0 26.8 8.1 24 12.7 W 20 33 11 18 1017.8 1017.3 0.0
23/11:30am 30.6 27.9 8.9 26 12.2 WSW 13 22 7 12 1018.3 1017.8 0.0
23/11:00am 29.6 27.0 9.2 28 11.4 WSW 13 20 7 11 1018.5 1018.0 0.0
23/10:30am 28.5 26.3 9.2 30 10.8 WNW 11 19 6 10 1018.8 1018.3 0.0
23/10:00am 26.7 26.4 10.0 35 9.4 ESE 2 7 1 4 1019.0 1018.5 0.0
23/09:30am 25.1 24.9 10.6 40 8.2 ESE 2 6 1 3 1019.0 1018.5 0.0
23/09:00am 21.7 21.4 10.2 48 6.3 SE 2 7 1 4 1019.2 1018.8 0.0
23/08:30am 19.8 19.6 10.5 55 5.1 SSE 2 6 1 3 1019.2 1018.8 0.0
23/08:00am 16.7 15.7 10.3 66 3.4 SW 6 7 3 4 1019.1 1018.7 0.0
23/07:30am 13.7 13.7 9.9 78 2.0 CALM 0 0 0 0 1019.1 1018.7 0.0
23/07:00am 11.3 11.2 9.4 88 1.0 CALM 0 0 0 0 1019.0 1018.5 0.0
23/06:30am 10.5 9.6 9.1 91 0.7 N 4 6 2 3 1018.9 1018.4 0.0
23/06:00am 10.1 9.8 8.5 90 0.8 W 0 0 0 0 1018.7 1018.2 0.0
23/05:30am 10.3 9.6 8.6 89 0.8 N 2 6 1 3 1018.6 1018.1 0.0
23/05:00am 10.5 9.4 8.6 88 0.9 W 4 11 2 6 1018.4 1017.9 0.0
23/04:30am 10.8 10.5 8.7 87 1.0 CALM 0 0 0 0 1018.3 1017.8 0.0
23/04:00am 10.6 9.9 8.4 86 1.1 WNW 2 7 1 4 1018.3 1017.8 0.0
23/03:30am 10.7 10.3 8.3 85 1.2 CALM 0 0 0 0 1018.7 1018.2 0.0
23/03:00am 10.7 9.2 8.6 87 1.0 WNW 6 7 3 4 1018.8 1018.3 0.0
23/02:30am 11.4 11.2 9.0 85 1.2 CALM 0 6 0 3 1018.9 1018.4 0.0
23/02:00am 11.4 9.9 8.6 83 1.4 W 6 9 3 5 1019.1 1018.7 0.0
23/01:30am 11.4 10.3 8.4 82 1.5 WNW 4 6 2 3 1019.1 1018.7 0.0
23/01:00am 13.0 12.1 9.3 78 1.9 WNW 4 9 2 5 1019.3 1018.9 0.0
23/12:30am 12.8 12.7 9.3 79 1.8 CALM 0 0 0 0 1019.5 1019.1 0.0
23/12:00am 13.0 12.7 8.5 74 2.3 WNW 0 0 0 0 1019.6 1019.2 0.0
 
Date/Time
EDT
Temp
°C
App
Temp
°C
Dew
Point
Rel
Hum
%
Delta-T
°C
Wind Press
QNH
hPa
Press
MSL
hPa
Rain
since 9 am
mm
Dir
 
Spd
km/h
Gust
km/h
Spd
kts
Gust
kts
22/11:30pm 14.1 12.8 9.1 72 2.6 WNW 6 9 3 5 1019.6 1019.2 0.0
22/11:00pm 14.0 12.4 8.6 70 2.7 W 7 9 4 5 1019.6 1019.2 0.0
22/10:30pm 15.4 15.2 8.9 65 3.4 CALM 0 0 0 0 1019.7 1019.3 0.0
22/10:00pm 15.9 15.6 8.6 62 3.8 CALM 0 0 0 0 1019.8 1019.4 0.0
22/09:30pm 16.5 16.3 9.0 61 3.9 CALM 0 6 0 3 1019.6 1019.2 0.0
22/09:00pm 17.2 16.6 8.9 58 4.3 N 2 7 1 4 1019.5 1019.1 0.0
22/08:30pm 18.6 18.3 8.6 52 5.2 CALM 0 0 0 0 1019.2 1018.8 0.0
22/08:00pm 19.3 18.1 8.0 48 5.9 WSW 4 7 2 4 1019.1 1018.7 0.0
22/07:30pm 20.9 19.0 7.5 42 7.0 SSE 7 9 4 5 1018.9 1018.4 0.0
22/07:00pm 23.1 20.8 7.6 37 8.2 SE 9 11 5 6 1018.9 1018.4 0.0
22/06:30pm 25.4 22.7 7.5 32 9.6 ESE 11 17 6 9 1019.2 1018.8 0.0
22/06:00pm 26.3 24.2 8.3 32 9.8 SSE 9 15 5 8 1019.2 1018.8 0.0
22/05:30pm 26.4 23.8 7.9 31 10.0 ESE 11 17 6 9 1019.4 1019.0 0.0
22/05:00pm 26.3 24.2 8.3 32 9.8 SE 9 19 5 10 1019.6 1019.2 0.0
22/04:30pm 26.4 23.9 8.4 32 9.8 S 11 20 6 11 1019.7 1019.3 0.0
22/04:00pm 26.2 23.7 8.2 32 9.8 SSE 11 19 6 10 1020.0 1019.6 0.0
22/03:30pm 26.5 23.7 8.5 32 9.8 SSW 13 20 7 11 1020.4 1020.0 0.0
22/03:00pm 25.2 22.5 7.3 32 9.5 SE 11 20 6 11 1020.8 1020.4 0.0
22/02:30pm 25.4 22.5 8.0 33 9.4 SE 13 20 7 11 1021.4 1020.9 0.0
22/02:00pm 25.0 23.0 8.5 35 8.9 SE 9 19 5 10 1022.1 1021.6 0.0
22/01:30pm 23.8 21.9 7.4 35 8.7 E 7 15 4 8 1022.7 1022.2 0.0
22/01:00pm 23.6 21.4 7.7 36 8.4 ESE 9 26 5 14 1023.4 1023.0 0.0
22/12:30pm 21.9 18.6 6.6 37 7.9 E 13 20 7 11 1023.8 1023.4 0.0
22/12:00pm 21.5 19.2 7.3 40 7.4 E 9 15 5 8 1024.5 1024.1 0.0
22/11:30am 21.2 19.3 7.4 41 7.2 ENE 7 17 4 9 1025.1 1024.7 0.0
22/11:00am 19.6 17.5 6.7 43 6.5 SW 7 13 4 7 1025.6 1025.2 0.0
22/10:30am 18.0 16.9 6.8 48 5.6 ENE 2 6 1 3 1026.1 1025.6 0.0
22/10:00am 17.7 15.5 7.7 52 5.1 ESE 9 13 5 7 1026.4 1025.9 0.0
22/09:30am 16.3 14.8 8.5 60 4.0 S 6 11 3 6 1026.7 1026.2 0.0
22/09:00am 14.8 13.7 8.3 65 3.3 SSE 4 7 2 4 1026.8 1026.3 0.0
22/08:30am 13.9 12.8 8.5 70 2.7 E 4 7 2 4 1026.9 1026.5 0.0
22/08:00am 12.4 12.1 8.5 77 1.9 CALM 0 0 0 0 1026.9 1026.5 0.0
22/07:30am 10.2 9.6 7.4 83 1.4 CALM 0 0 0 0 1026.8 1026.3 0.0
22/07:00am 8.7 8.1 7.6 93 0.5 CALM 0 0 0 0 1026.8 1026.3 0.0
22/06:30am 6.1 5.0 5.1 93 0.4 CALM 0 0 0 0 1026.5 1026.0 0.0
22/06:00am 6.7 5.6 5.3 91 0.6 CALM 0 0 0 0 1026.2 1025.7 0.0
22/05:30am 7.8 6.9 6.1 89 0.8 CALM 0 0 0 0 1026.1 1025.6 0.0
22/05:00am 9.5 7.5 7.3 86 1.0 E 7 9 4 5 1026.1 1025.6 0.0
22/04:30am 11.2 8.0 8.4 83 1.4 S 15 19 8 10 1026.2 1025.7 0.0
22/04:00am 11.6 8.4 8.3 80 1.6 S 15 19 8 10 1026.3 1025.8 0.0
22/03:30am 12.2 9.0 8.5 78 1.9 S 15 17 8 9 1026.4 1025.9 0.0
22/03:00am 13.2 10.4 8.7 74 2.3 S 13 17 7 9 1026.8 1026.3 0.0
22/02:30am 13.5 10.3 8.6 72 2.5 S 15 17 8 9 1027.0 1026.6 0.0
22/02:00am 14.0 10.8 8.4 69 2.8 S 15 19 8 10 1027.5 1027.1 0.0
22/01:30am 14.2 11.0 8.4 68 2.9 S 15 19 8 10 1028.0 1027.6 0.0
22/01:00am 14.4 11.2 8.4 67 3.0 S 15 19 8 10 1028.3 1027.9 0.0
22/12:30am 14.5 11.2 8.2 66 3.2 S 15 19 8 10 1028.8 1028.4 0.0
22/12:00am 14.7 11.4 8.2 65 3.3 S 15 22 8 12 1029.1 1028.7 0.0
 
Date/Time
EDT
Temp
°C
App
Temp
°C
Dew
Point
Rel
Hum
%
Delta-T
°C
Wind Press
QNH
hPa
Press
MSL
hPa
Rain
since 9 am
mm
Dir
 
Spd
km/h
Gust
km/h
Spd
kts
Gust
kts
21/11:30pm 14.7 11.5 8.4 66 3.2 S 15 19 8 10 1029.1 1028.7 0.0
21/11:00pm 14.6 10.6 8.3 66 3.2 S 19 20 10 11 1029.0 1028.6 0.0
21/10:30pm 14.6 10.7 8.5 67 3.1 S 19 22 10 12 1029.2 1028.8 0.0
21/10:00pm 13.9 10.0 8.5 70 2.7 S 19 22 10 12 1029.1 1028.7 0.0
21/09:30pm 14.0 9.8 8.2 68 2.9 S 20 26 11 14 1029.0 1028.6 0.0
21/09:00pm 14.1 9.7 7.6 65 3.2 S 20 26 11 14 1029.0 1028.6 0.0
21/08:30pm 14.4 9.6 7.5 63 3.4 S 22 30 12 16 1028.7 1028.3 0.0
21/08:00pm 14.9 9.8 7.7 62 3.6 S 24 32 13 17 1028.2 1027.8 0.0
21/07:30pm 15.6 10.5 7.6 59 4.0 S 24 33 13 18 1027.9 1027.5 0.0
21/07:00pm 17.2 11.7 7.5 53 4.9 SSE 26 33 14 18 1027.6 1027.2 0.0
21/06:30pm 18.5 12.6 7.6 49 5.6 S 28 37 15 20 1027.3 1026.9 0.0
21/06:00pm 19.4 13.5 7.5 46 6.1 SSE 28 35 15 19 1026.9 1026.5 0.0
21/05:30pm 20.3 14.9 8.0 45 6.4 S 26 33 14 18 1026.7 1026.2 0.0
21/05:00pm 20.7 15.7 8.0 44 6.6 SE 24 30 13 16 1026.7 1026.2 0.0
21/04:30pm 20.6 15.2 7.9 44 6.6 S 26 41 14 22 1026.7 1026.2 0.0
21/04:00pm 21.3 16.8 8.6 44 6.7 SE 22 30 12 16 1026.8 1026.3 0.0
21/03:30pm 21.4 16.5 8.3 43 6.9 S 24 33 13 18 1027.0 1026.6 0.0
21/03:00pm 21.5 17.0 8.7 44 6.8 SE 22 35 12 19 1027.4 1027.0 0.0
21/02:30pm 20.6 16.0 8.3 45 6.5 SE 22 33 12 18 1027.9 1027.5 0.0
21/02:00pm 21.2 16.4 8.8 45 6.6 SE 24 39 13 21 1028.4 1028.0 0.0
21/01:35pm 21.5 15.8 8.4 43 7.0 SSE 28 46 15 25 1028.6 1028.2 0.0
21/01:30pm 21.0 15.4 8.6 45 6.6 SSE 28 39 15 21 1028.8 1028.4 0.0
21/01:00pm 21.5 17.2 9.4 46 6.5 SSE 22 32 12 17 1029.3 1028.9 0.0
21/12:30pm 21.3 16.9 7.5 41 7.2 SE 20 26 11 14 1029.6 1029.2 0.0
21/12:00pm 20.0 16.2 7.7 45 6.3 ESE 17 24 9 13 1029.9 1029.5 0.0
21/11:30am 19.0 15.2 7.4 47 6.0 SE 17 26 9 14 1030.2 1029.8 0.0
21/11:00am 18.3 13.6 7.7 50 5.4 SE 22 33 12 18 1030.5 1030.1 0.0
21/10:30am 18.8 14.3 8.5 51 5.4 SSE 22 28 12 15 1030.6 1030.2 0.0
21/10:00am 17.3 13.1 8.4 56 4.6 SSE 20 26 11 14 1031.0 1030.6 0.0
21/09:30am 16.7 12.5 8.1 57 4.4 SE 20 28 11 15 1031.0 1030.6 0.0
21/09:00am 16.3 12.2 8.8 61 3.9 SE 20 26 11 14 1030.6 1030.2 0.0
21/08:30am 15.9 11.2 9.3 65 3.4 SE 24 30 13 16 1030.3 1029.9 0.0
21/08:00am 15.4 11.6 9.7 69 3.0 SE 20 26 11 14 1030.1 1029.7 0.0
21/07:30am 14.1 11.7 11.4 84 1.5 S 15 20 8 11 1029.8 1029.4 0.0
21/07:00am 12.4 9.9 11.0 91 0.7 S 15 20 8 11 1029.4 1029.0 0.0
21/06:30am 12.2 9.6 10.8 91 0.7 S 15 20 8 11 1029.0 1028.6 0.0
21/06:00am 12.6 9.8 11.2 91 0.7 S 17 22 9 12 1028.8 1028.4 0.0
21/05:30am 12.4 10.0 11.3 93 0.6 S 15 19 8 10 1028.5 1028.1 0.0
21/05:00am 12.1 9.1 10.8 92 0.7 S 17 20 9 11 1028.3 1027.9 0.0
21/04:30am 12.2 9.2 10.6 90 0.8 S 17 22 9 12 1028.4 1028.0 0.0
21/04:00am 12.6 9.2 10.7 88 1.0 S 19 22 10 12 1028.3 1027.9 0.0
21/03:30am 12.6 9.3 10.8 89 0.9 S 19 22 10 12 1028.3 1027.9 0.0
21/03:00am 12.1 9.1 10.5 90 0.8 S 17 19 9 10 1028.4 1028.0 0.0
21/02:30am 12.5 9.1 10.7 89 0.9 S 19 22 10 12 1028.5 1028.1 0.0
21/02:00am 13.2 10.3 11.1 87 1.1 S 17 22 9 12 1028.6 1028.2 0.0
21/01:30am 13.6 10.3 11.5 87 1.1 S 20 26 11 14 1028.9 1028.5 0.0
21/01:00am 14.2 10.1 11.4 83 1.5 SSE 24 32 13 17 1029.1 1028.7 0.0
21/12:30am 14.6 11.2 11.2 80 1.8 SSE 20 28 11 15 1029.2 1028.8 0.0
21/12:00am 14.0 9.9 11.5 85 1.3 S 24 30 13 16 1029.5 1029.1 0.0
 
Date/Time
EDT
Temp
°C
App
Temp
°C
Dew
Point
Rel
Hum
%
Delta-T
°C
Wind Press
QNH
hPa
Press
MSL
hPa
Rain
since 9 am
mm
Dir
 
Spd
km/h
Gust
km/h
Spd
kts
Gust
kts
20/11:30pm 14.8 10.7 11.4 80 1.8 SSE 24 30 13 16 1029.6 1029.2 0.0
20/11:00pm 14.7 11.5 12.0 84 1.5 S 20 26 11 14 1029.7 1029.3 0.0
20/10:30pm 15.1 11.9 11.9 81 1.8 SSE 20 28 11 15 1029.6 1029.2 0.0
20/10:00pm 15.0 11.5 12.1 83 1.6 SSE 22 32 12 17 1029.5 1029.1 0.0
20/09:30pm 15.2 11.3 12.1 82 1.7 SSE 24 32 13 17 1029.4 1029.0 0.0
20/09:00pm 15.5 11.5 13.0 85 1.4 S 26 33 14 18 1029.1 1028.7 0.0
20/08:30pm 16.0 12.4 12.9 82 1.7 SSE 24 32 13 17 1028.7 1028.3 0.0
20/08:00pm 16.3 12.1 12.5 78 2.1 SSE 26 35 14 19 1028.1 1027.7 0.0
20/07:30pm 16.7 12.3 11.8 73 2.7 S 26 33 14 18 1027.7 1027.3 0.0
20/07:00pm 18.4 12.5 10.5 60 4.3 SSE 32 41 17 22 1027.2 1026.8 0.0

Other Formats:

Comma delimited format used in spreadsheet applications
http://www.bom.gov.au/fwo/IDN60801/IDN60801.95758.axf

JavaScript Object Notation format (JSON) in row-major order
http://www.bom.gov.au/fwo/IDN60801/IDN60801.95758.json